Time;durP1;ratioP1;P1;durP2;ratioP2;P2;SDS_P1;SDS_P2;PMS_P1;PMS_P2;Temp;Humidity;BMP_temperature;BMP_pressure;BME280_temperature;BME280_humidity;BME280_pressure;Samples;Min_cycle;Max_cycle;Signal;HPM_P1;HPM_P2
2021/08/21 00:02:20;;;;;;;14.93;12.32;;;14.80;99.90;;;;;;5092213;28;20028;-75
2021/08/21 00:04:47;;;;;;;13.77;11.98;;;14.80;99.90;;;;;;5090677;28;20046;-76
2021/08/21 00:07:13;;;;;;;14.30;12.80;;;14.70;99.90;;;;;;5091775;28;20436;-76
2021/08/21 00:09:39;;;;;;;16.27;12.65;;;14.70;99.90;;;;;;5091564;28;20108;-75
2021/08/21 00:12:05;;;;;;;14.18;12.65;;;14.70;99.90;;;;;;5090652;28;20043;-76
2021/08/21 00:14:31;;;;;;;12.65;11.40;;;14.70;99.90;;;;;;5093542;28;20032;-73
2021/08/21 00:16:57;;;;;;;12.43;11.13;;;14.60;99.90;;;;;;5093054;28;20020;-74
2021/08/21 00:19:22;;;;;;;14.48;11.77;;;14.60;99.90;;;;;;5092130;28;20567;-75
2021/08/21 00:21:48;;;;;;;13.18;11.75;;;14.60;99.90;;;;;;5091237;28;20110;-75
2021/08/21 00:24:14;;;;;;;13.80;11.88;;;14.50;99.90;;;;;;5091901;28;20055;-74
2021/08/21 00:26:40;;;;;;;13.48;11.65;;;14.60;99.90;;;;;;5092531;28;20100;-76
2021/08/21 00:29:06;;;;;;;15.23;12.38;;;14.50;99.90;;;;;;5091512;28;20074;-77
2021/08/21 00:31:31;;;;;;;12.95;11.63;;;14.50;99.90;;;;;;5093007;28;20069;-77
2021/08/21 00:33:57;;;;;;;14.82;11.35;;;14.50;99.90;;;;;;5092064;28;20616;-77
2021/08/21 00:36:22;;;;;;;13.55;11.98;;;14.40;99.90;;;;;;5091812;28;20062;-76
2021/08/21 00:38:48;;;;;;;12.93;11.60;;;14.40;99.90;;;;;;5092702;28;20028;-77
2021/08/21 00:41:14;;;;;;;12.93;11.63;;;14.40;99.90;;;;;;5091981;28;20024;-75
2021/08/21 00:43:40;;;;;;;14.77;12.63;;;14.40;99.90;;;;;;5092009;28;20367;-74
2021/08/21 00:46:05;;;;;;;13.40;12.02;;;14.30;99.90;;;;;;5091508;28;20032;-76
2021/08/21 00:48:31;;;;;;;13.35;11.98;;;14.30;99.90;;;;;;5092613;28;20032;-75
2021/08/21 00:51:01;;;;;;;19.52;12.85;;;14.30;99.90;;;;;;5092060;28;20047;-76
2021/08/21 00:53:27;;;;;;;14.77;12.45;;;14.30;99.90;;;;;;5091580;28;20464;-74
2021/08/21 00:55:53;;;;;;;12.70;11.40;;;14.30;99.90;;;;;;5090980;28;20082;-76
2021/08/21 00:58:21;;;;;;;13.25;11.98;;;14.20;99.90;;;;;;5091687;28;20493;-76
2021/08/21 01:00:47;;;;;;;18.13;12.88;;;14.20;99.90;;;;;;5091308;28;20046;-75
2021/08/21 01:03:12;;;;;;;14.27;12.88;;;14.20;99.90;;;;;;5093023;28;20052;-74
2021/08/21 01:05:38;;;;;;;14.88;13.30;;;14.20;99.90;;;;;;5092644;28;20528;-75
2021/08/21 01:08:04;;;;;;;12.93;11.63;;;14.20;99.90;;;;;;5092665;28;20020;-77
2021/08/21 01:10:30;;;;;;;13.93;12.48;;;14.20;99.90;;;;;;5094715;28;20023;-76
2021/08/21 01:12:56;;;;;;;16.13;14.02;;;14.10;99.90;;;;;;5095707;28;20104;-74
2021/08/21 01:15:25;;;;;;;14.48;12.98;;;14.10;99.90;;;;;;5094284;28;20413;-75
2021/08/21 01:17:55;;;;;;;15.52;14.02;;;14.10;99.90;;;;;;5095761;28;20024;-76
2021/08/21 01:20:26;;;;;;;15.35;13.73;;;14.10;99.90;;;;;;5095758;28;20396;-76
2021/08/21 01:22:51;;;;;;;16.57;14.80;;;14.10;99.90;;;;;;5093964;28;20091;-75
2021/08/21 01:25:21;;;;;;;15.93;14.27;;;14.10;99.90;;;;;;5095903;28;20098;-75
2021/08/21 01:27:47;;;;;;;14.57;13.07;;;14.00;99.90;;;;;;5094386;28;20032;-76
2021/08/21 01:30:13;;;;;;;17.00;15.23;;;14.00;99.90;;;;;;5093915;28;20377;-76
2021/08/21 01:32:39;;;;;;;16.08;14.27;;;14.00;99.90;;;;;;5094597;28;20020;-76
2021/08/21 01:35:05;;;;;;;18.88;15.75;;;14.00;99.90;;;;;;5094293;28;20491;-75
2021/08/21 01:37:31;;;;;;;16.77;14.98;;;13.90;99.90;;;;;;5094963;28;20043;-75
2021/08/21 01:39:57;;;;;;;16.25;14.63;;;13.90;99.90;;;;;;5094868;28;20040;-76
2021/08/21 01:42:24;;;;;;;17.00;15.20;;;13.90;99.90;;;;;;5094330;28;20024;-75
2021/08/21 01:44:50;;;;;;;18.63;15.43;;;13.90;99.90;;;;;;5093681;28;20399;-76
2021/08/21 01:47:16;;;;;;;17.77;15.32;;;13.90;99.90;;;;;;5094406;28;20016;-77
2021/08/21 01:49:42;;;;;;;17.30;15.27;;;13.90;99.90;;;;;;5095090;28;20460;-76
2021/08/21 01:52:08;;;;;;;17.73;15.73;;;13.80;99.90;;;;;;5095688;28;20058;-75
2021/08/21 01:54:34;;;;;;;17.05;15.05;;;13.80;99.90;;;;;;5094078;28;20028;-76
2021/08/21 01:57:02;;;;;;;18.23;16.35;;;13.80;99.90;;;;;;5093010;28;20016;-76
2021/08/21 01:59:38;;;;;;;19.85;17.20;;;13.80;99.90;;;;;;5093936;28;20021;-76
2021/08/21 02:02:07;;;;;;;19.30;17.30;;;13.80;99.90;;;;;;5093495;28;20024;-76
2021/08/21 02:04:32;;;;;;;19.42;16.67;;;13.80;99.90;;;;;;5093180;28;20023;-76
2021/08/21 02:06:58;;;;;;;18.67;16.77;;;13.80;99.90;;;;;;5093543;28;20083;-76
2021/08/21 02:09:25;;;;;;;19.52;17.55;;;13.80;99.90;;;;;;5093665;28;20059;-76
2021/08/21 02:11:53;;;;;;;19.55;17.55;;;13.80;99.90;;;;;;5092476;28;20059;-76
2021/08/21 02:14:20;;;;;;;18.30;16.45;;;13.70;99.90;;;;;;5094932;28;20036;-76
2021/08/21 02:16:48;;;;;;;22.15;16.55;;;13.70;99.90;;;;;;5093341;28;20044;-76
2021/08/21 02:19:14;;;;;;;19.40;17.40;;;13.70;99.90;;;;;;5092049;28;20078;-75
2021/08/21 02:21:40;;;;;;;18.92;16.08;;;13.70;99.90;;;;;;5093714;28;20044;-76
2021/08/21 02:24:06;;;;;;;18.40;16.05;;;13.70;99.90;;;;;;5093222;28;20035;-76
2021/08/21 02:26:37;;;;;;;18.75;16.65;;;13.70;99.90;;;;;;5093997;28;20031;-75
2021/08/21 02:29:03;;;;;;;19.65;17.13;;;13.60;99.90;;;;;;5094337;28;20032;-76
2021/08/21 02:31:28;;;;;;;17.70;15.77;;;13.60;99.90;;;;;;5093324;28;20024;-76
2021/08/21 02:33:54;;;;;;;20.30;15.73;;;13.60;99.90;;;;;;5092408;28;20027;-76
2021/08/21 02:36:19;;;;;;;17.55;15.52;;;13.60;99.90;;;;;;5093256;28;20494;-77
2021/08/21 02:38:45;;;;;;;17.50;15.70;;;13.60;99.90;;;;;;5092629;28;20094;-76
2021/08/21 02:41:12;;;;;;;17.02;15.32;;;13.60;99.90;;;;;;5093839;28;20035;-78
2021/08/21 02:43:37;;;;;;;18.90;16.90;;;13.60;99.90;;;;;;5093672;28;20023;-76
2021/08/21 02:46:03;;;;;;;22.45;17.02;;;13.60;99.90;;;;;;5092247;28;20028;-76
2021/08/21 02:48:29;;;;;;;17.75;15.70;;;13.50;99.90;;;;;;5092931;28;20012;-77
2021/08/21 02:50:55;;;;;;;20.48;16.17;;;13.50;99.90;;;;;;5093813;28;20476;-77
2021/08/21 02:53:20;;;;;;;17.73;15.82;;;13.50;99.90;;;;;;5092205;28;20040;-76
2021/08/21 02:55:46;;;;;;;19.75;17.75;;;13.50;99.90;;;;;;5092477;28;20066;-76
2021/08/21 02:58:11;;;;;;;19.48;17.25;;;13.50;99.90;;;;;;5092740;28;20530;-77
2021/08/21 03:00:37;;;;;;;20.15;17.92;;;13.50;99.90;;;;;;5091682;28;20051;-76
2021/08/21 03:03:03;;;;;;;19.60;17.52;;;13.50;99.90;;;;;;5093809;28;20016;-75
2021/08/21 03:05:29;;;;;;;30.88;18.60;;;13.50;99.90;;;;;;5093943;28;20084;-76
2021/08/21 03:07:56;;;;;;;22.67;19.05;;;13.50;99.90;;;;;;5091835;28;20103;-76
2021/08/21 03:10:21;;;;;;;21.88;19.67;;;13.50;99.90;;;;;;5092424;28;20028;-74
2021/08/21 03:12:47;;;;;;;20.88;18.67;;;13.60;99.90;;;;;;5092035;28;20067;-77
2021/08/21 03:15:13;;;;;;;23.48;17.90;;;13.60;99.90;;;;;;5093183;28;20024;-74
2021/08/21 03:17:38;;;;;;;21.42;19.13;;;13.60;99.90;;;;;;5093749;28;20487;-77
2021/08/21 03:20:05;;;;;;;20.40;18.20;;;13.70;99.90;;;;;;5092500;28;20036;-76
2021/08/21 03:22:31;;;;;;;20.65;18.23;;;13.80;99.90;;;;;;5091657;28;20605;-77
2021/08/21 03:24:56;;;;;;;20.45;18.35;;;13.90;99.90;;;;;;5093283;28;20069;-77
2021/08/21 03:27:22;;;;;;;20.92;18.65;;;13.90;99.90;;;;;;5092359;28;20111;-77
2021/08/21 03:29:47;;;;;;;20.52;18.33;;;14.10;99.90;;;;;;5091047;28;20028;-77
2021/08/21 03:32:16;;;;;;;21.35;18.63;;;14.20;99.90;;;;;;5092477;28;20099;-78
2021/08/21 03:34:42;;;;;;;20.67;17.55;;;14.30;99.90;;;;;;5093175;28;20459;-77
2021/08/21 03:37:07;;;;;;;20.90;17.58;;;14.30;99.90;;;;;;5091593;28;20016;-76
2021/08/21 03:39:33;;;;;;;21.50;19.27;;;14.40;99.90;;;;;;5092132;28;20093;-77
2021/08/21 03:41:59;;;;;;;21.58;18.63;;;14.50;99.90;;;;;;5091850;28;20022;-76
2021/08/21 03:44:25;;;;;;;22.00;17.95;;;14.50;99.90;;;;;;5092929;28;20052;-76
2021/08/21 03:46:50;;;;;;;20.70;18.25;;;14.50;99.90;;;;;;5091650;28;20032;-76
2021/08/21 03:49:16;;;;;;;21.70;19.40;;;14.60;99.90;;;;;;5092083;28;20099;-78
2021/08/21 03:51:41;;;;;;;21.40;18.90;;;14.70;99.90;;;;;;5091398;28;20476;-76
2021/08/21 03:54:07;;;;;;;20.70;18.60;;;14.70;99.90;;;;;;5092067;28;20035;-76
2021/08/21 03:56:33;;;;;;;20.20;18.08;;;14.80;99.90;;;;;;5092545;28;20055;-76
2021/08/21 03:58:58;;;;;;;20.70;18.40;;;14.80;99.90;;;;;;5091888;28;20028;-77
2021/08/21 04:01:24;;;;;;;22.38;19.48;;;14.80;99.90;;;;;;5093358;28;20096;-76
2021/08/21 04:03:49;;;;;;;20.70;17.33;;;14.90;99.90;;;;;;5090950;28;20025;-75
2021/08/21 04:06:15;;;;;;;20.27;18.15;;;14.90;99.90;;;;;;5093303;28;20028;-75
2021/08/21 04:08:40;;;;;;;19.55;17.48;;;15.00;99.90;;;;;;5091753;28;20020;-75
2021/08/21 04:11:06;;;;;;;21.08;18.08;;;15.00;99.90;;;;;;5092410;28;20484;-77
2021/08/21 04:13:31;;;;;;;19.60;17.38;;;15.10;99.90;;;;;;5091447;28;20407;-76
2021/08/21 04:15:57;;;;;;;18.38;16.35;;;15.10;99.90;;;;;;5092792;28;20031;-76
2021/08/21 04:18:22;;;;;;;18.27;16.38;;;15.20;99.90;;;;;;5091470;28;20082;-75
2021/08/21 04:20:48;;;;;;;18.73;15.88;;;15.20;99.90;;;;;;5092751;28;20037;-76
2021/08/21 04:23:13;;;;;;;18.63;16.65;;;15.30;99.90;;;;;;5093211;28;20082;-75
2021/08/21 04:25:39;;;;;;;21.17;18.08;;;15.30;99.90;;;;;;5092279;28;20024;-77
2021/08/21 04:28:05;;;;;;;18.30;16.40;;;15.40;99.90;;;;;;5092613;28;20464;-75
2021/08/21 04:30:31;;;;;;;18.38;16.00;;;15.40;99.90;;;;;;5092789;28;20019;-75
2021/08/21 04:32:56;;;;;;;19.10;16.88;;;15.50;99.90;;;;;;5091851;28;20107;-75
2021/08/21 04:35:22;;;;;;;19.48;17.20;;;15.50;99.90;;;;;;5092880;28;20507;-76
2021/08/21 04:37:48;;;;;;;21.63;18.02;;;15.50;99.90;;;;;;5092900;28;20028;-76
2021/08/21 04:40:14;;;;;;;20.98;17.35;;;15.50;99.90;;;;;;5090914;28;20052;-75
2021/08/21 04:42:40;;;;;;;18.88;16.92;;;15.50;99.90;;;;;;5093087;28;20484;-76
2021/08/21 04:45:06;;;;;;;18.08;16.17;;;15.50;99.90;;;;;;5094886;28;20047;-76
2021/08/21 04:47:32;;;;;;;19.73;16.58;;;15.50;99.90;;;;;;5094695;28;20468;-76
2021/08/21 04:49:57;;;;;;;19.52;17.45;;;15.40;99.90;;;;;;5094736;28;20060;-76
2021/08/21 04:52:23;;;;;;;18.92;16.90;;;15.40;99.90;;;;;;5095148;28;20024;-75
2021/08/21 04:54:50;;;;;;;18.88;16.98;;;15.40;99.90;;;;;;5095684;28;20028;-75
2021/08/21 04:57:16;;;;;;;17.95;15.93;;;15.30;99.90;;;;;;5096445;28;20032;-76
2021/08/21 04:59:42;;;;;;;21.13;17.13;;;15.30;99.90;;;;;;5094982;28;20122;-77
2021/08/21 05:02:08;;;;;;;18.67;16.65;;;15.30;99.90;;;;;;5095044;28;20020;-78
2021/08/21 05:04:34;;;;;;;18.75;16.85;;;15.30;99.90;;;;;;5095183;28;20028;-75
2021/08/21 05:06:59;;;;;;;21.17;17.85;;;15.30;99.90;;;;;;5095586;28;20037;-76
2021/08/21 05:09:25;;;;;;;18.83;16.92;;;15.30;99.90;;;;;;5095071;28;20016;-74
2021/08/21 05:11:50;;;;;;;17.23;15.52;;;15.30;99.90;;;;;;5094471;28;20038;-75
2021/08/21 05:14:16;;;;;;;17.98;16.05;;;15.30;99.90;;;;;;5094195;28;20043;-76
2021/08/21 05:16:43;;;;;;;22.98;17.65;;;15.40;99.90;;;;;;5094412;28;20062;-74
2021/08/21 05:21:58;;;;;;;20.45;17.70;;;15.30;99.90;;;;;;5095266;28;20050;-75
2021/08/21 05:24:23;;;;;;;19.65;17.13;;;15.30;99.90;;;;;;5095008;28;20070;-75
2021/08/21 05:26:50;;;;;;;19.42;17.45;;;15.30;99.90;;;;;;5094474;28;20016;-75
2021/08/21 05:29:16;;;;;;;19.35;17.23;;;15.40;99.90;;;;;;5093869;28;20024;-75
2021/08/21 05:31:42;;;;;;;19.80;17.27;;;15.50;99.90;;;;;;5092592;28;20115;-75
2021/08/21 05:34:11;;;;;;;19.77;17.67;;;15.50;99.90;;;;;;5094323;28;20040;-75
2021/08/21 05:36:37;;;;;;;18.40;16.42;;;15.60;99.90;;;;;;5092414;28;20387;-75
2021/08/21 05:39:06;;;;;;;18.83;16.92;;;15.60;99.90;;;;;;5093721;28;20123;-74
2021/08/21 05:41:32;;;;;;;19.38;16.85;;;15.70;99.90;;;;;;5094401;28;20020;-74
2021/08/21 05:43:57;;;;;;;21.17;16.73;;;15.60;99.90;;;;;;5094951;28;20053;-74
2021/08/21 05:46:23;;;;;;;18.48;16.58;;;15.70;99.90;;;;;;5095741;28;20028;-74
2021/08/21 05:48:48;;;;;;;18.38;16.58;;;15.70;99.90;;;;;;5095210;28;20456;-74
2021/08/21 05:51:14;;;;;;;19.30;17.30;;;15.80;99.90;;;;;;5095103;28;20456;-74
2021/08/21 05:53:39;;;;;;;24.00;21.40;;;15.80;99.90;;;;;;5095612;28;20028;-74
2021/08/21 05:56:05;;;;;;;26.08;23.27;;;15.80;99.90;;;;;;5093493;28;20032;-74
2021/08/21 05:58:31;;;;;;;24.80;22.27;;;15.90;99.90;;;;;;5094160;28;20510;-74
2021/08/21 06:00:56;;;;;;;26.63;23.77;;;16.00;99.90;;;;;;5094749;28;20511;-74
2021/08/21 06:03:22;;;;;;;26.52;23.63;;;16.00;99.90;;;;;;5094357;28;20586;-74
2021/08/21 06:05:51;;;;;;;26.27;23.45;;;16.20;99.90;;;;;;5093857;28;20379;-75
2021/08/21 06:08:16;;;;;;;25.85;23.05;;;16.40;99.90;;;;;;5093800;28;20487;-75
2021/08/21 06:10:42;;;;;;;26.55;23.75;;;16.50;99.90;;;;;;5094051;28;20035;-75
2021/08/21 06:13:08;;;;;;;27.15;23.33;;;16.70;99.90;;;;;;5093542;28;20074;-74
2021/08/21 06:15:34;;;;;;;24.10;21.52;;;16.80;99.90;;;;;;5093799;28;20051;-75
2021/08/21 06:17:59;;;;;;;25.45;22.35;;;16.90;99.90;;;;;;5092762;28;20545;-74
2021/08/21 06:20:25;;;;;;;22.85;20.10;;;17.10;99.90;;;;;;5093604;28;20024;-73
2021/08/21 06:22:51;;;;;;;21.48;19.33;;;17.20;99.90;;;;;;5093296;28;20111;-75
2021/08/21 06:25:17;;;;;;;20.48;18.30;;;17.30;99.90;;;;;;5094104;28;20078;-75
2021/08/21 06:27:42;;;;;;;21.52;18.63;;;17.40;99.90;;;;;;5093162;28;20479;-75
2021/08/21 06:30:10;;;;;;;20.00;17.98;;;17.50;99.90;;;;;;5090378;28;20028;-74
2021/08/21 06:32:36;;;;;;;19.98;17.90;;;17.70;99.90;;;;;;5091718;28;20035;-74
2021/08/21 06:35:02;;;;;;;20.17;17.77;;;17.80;99.90;;;;;;5091504;28;20024;-75
2021/08/21 06:37:27;;;;;;;20.48;18.33;;;17.90;99.90;;;;;;5091073;28;20024;-77
2021/08/21 06:39:53;;;;;;;18.95;17.05;;;17.90;99.90;;;;;;5093398;28;20043;-78
2021/08/21 06:42:19;;;;;;;19.65;17.60;;;18.00;99.90;;;;;;5094462;28;20026;-77
2021/08/21 06:44:44;;;;;;;19.73;17.67;;;18.10;99.90;;;;;;5092760;28;20019;-74
2021/08/21 06:47:10;;;;;;;20.40;18.30;;;18.10;99.90;;;;;;5092480;28;20031;-75
2021/08/21 06:49:35;;;;;;;19.38;17.25;;;18.20;99.90;;;;;;5093238;28;20050;-75
2021/08/21 06:52:01;;;;;;;20.08;17.33;;;18.20;99.90;;;;;;5093019;28;20024;-75
2021/08/21 06:54:27;;;;;;;21.05;18.42;;;18.30;99.90;;;;;;5093306;28;20024;-74
2021/08/21 06:56:52;;;;;;;21.38;18.23;;;18.40;99.90;;;;;;5093754;28;20016;-75
2021/08/21 06:59:18;;;;;;;20.95;17.67;;;18.50;99.90;;;;;;5093149;28;20107;-78
2021/08/21 07:01:43;;;;;;;21.27;18.98;;;18.60;99.90;;;;;;5093094;28;20032;-74
2021/08/21 07:04:09;;;;;;;20.63;18.45;;;18.60;99.90;;;;;;5092693;28;20028;-75
2021/08/21 07:06:34;;;;;;;19.80;17.80;;;18.70;99.90;;;;;;5092743;28;20043;-78
2021/08/21 07:09:00;;;;;;;20.45;18.08;;;18.60;99.90;;;;;;5084856;28;20107;-77
2021/08/21 07:11:26;;;;;;;21.02;18.80;;;18.50;99.90;;;;;;5092794;28;20031;-76
2021/08/21 07:13:52;;;;;;;19.13;17.13;;;18.50;99.90;;;;;;5091457;28;20040;-77
2021/08/21 07:16:17;;;;;;;24.25;20.33;;;18.40;99.90;;;;;;5092172;28;20028;-78
2021/08/21 07:18:43;;;;;;;21.52;18.30;;;18.40;99.90;;;;;;5092136;28;20035;-74
2021/08/21 07:21:09;;;;;;;19.60;17.20;;;18.40;99.90;;;;;;5092735;28;20502;-77
2021/08/21 07:23:36;;;;;;;21.15;18.70;;;18.40;99.90;;;;;;5093240;28;20024;-75
2021/08/21 07:26:01;;;;;;;21.00;18.65;;;18.50;99.90;;;;;;5097300;28;20043;-76
2021/08/21 07:28:27;;;;;;;19.40;17.30;;;18.60;99.90;;;;;;5092695;28;20105;-73
2021/08/21 07:30:53;;;;;;;18.35;16.48;;;18.60;99.90;;;;;;5092409;28;20027;-73
2021/08/21 07:33:18;;;;;;;22.17;18.63;;;18.60;99.90;;;;;;5083078;28;20445;-77
2021/08/21 07:35:44;;;;;;;19.90;17.15;;;18.50;99.90;;;;;;5084434;28;20024;-76
2021/08/21 07:38:09;;;;;;;22.60;17.77;;;18.50;99.90;;;;;;5091481;28;20472;-75
2021/08/21 07:40:35;;;;;;;20.42;18.20;;;18.40;99.90;;;;;;5091679;28;20051;-71
2021/08/21 07:43:02;;;;;;;19.50;17.35;;;18.50;99.90;;;;;;5091836;28;20078;-75
2021/08/21 07:45:27;;;;;;;21.42;18.85;;;18.50;99.90;;;;;;5093032;28;20027;-72
2021/08/21 07:47:53;;;;;;;19.60;17.42;;;18.50;99.90;;;;;;5092315;28;20381;-76
2021/08/21 07:50:19;;;;;;;21.92;18.55;;;18.50;99.90;;;;;;5093551;28;20027;-73
2021/08/21 07:52:45;;;;;;;20.85;18.65;;;18.50;99.90;;;;;;5092813;28;20059;-73
2021/08/21 07:55:12;;;;;;;20.55;18.30;;;18.60;99.90;;;;;;5092989;28;20047;-78
2021/08/21 07:57:37;;;;;;;20.15;18.05;;;18.60;99.90;;;;;;5092340;28;20103;-78
2021/08/21 08:00:04;;;;;;;19.50;16.77;;;18.80;99.90;;;;;;5091262;28;20119;-74
2021/08/21 08:02:30;;;;;;;18.23;16.33;;;18.90;99.90;;;;;;5097236;28;20004;-75
2021/08/21 08:04:55;;;;;;;20.52;16.42;;;19.30;99.90;;;;;;5100920;28;20384;-75
2021/08/21 08:07:21;;;;;;;17.25;15.40;;;19.70;99.90;;;;;;5092845;28;20028;-73
2021/08/21 08:09:47;;;;;;;17.80;15.90;;;20.10;99.90;;;;;;5091846;28;20024;-77
2021/08/21 08:12:12;;;;;;;21.33;14.90;;;20.50;99.90;;;;;;5092867;28;20182;-74
2021/08/21 08:14:38;;;;;;;15.57;13.98;;;20.80;99.90;;;;;;5092719;28;20435;-77
2021/08/21 08:17:04;;;;;;;13.82;12.40;;;21.10;99.90;;;;;;5092756;28;20028;-75
2021/08/21 08:19:29;;;;;;;14.32;12.90;;;21.30;99.90;;;;;;5096071;28;20035;-73
2021/08/21 08:21:55;;;;;;;13.40;12.00;;;21.50;99.90;;;;;;5095890;28;20060;-80
2021/08/21 08:24:21;;;;;;;16.42;13.90;;;21.70;99.90;;;;;;5095172;28;20047;-76
2021/08/21 08:26:47;;;;;;;15.18;13.55;;;21.80;99.90;;;;;;5096653;28;20020;-73
2021/08/21 08:29:12;;;;;;;16.60;14.07;;;22.00;99.90;;;;;;5097333;28;20028;-73
2021/08/21 08:31:38;;;;;;;16.25;14.30;;;22.10;99.90;;;;;;5096560;28;20012;-73
2021/08/21 08:34:03;;;;;;;14.55;13.05;;;22.20;99.90;;;;;;5096540;28;20024;-75
2021/08/21 08:36:29;;;;;;;15.77;13.77;;;22.40;99.90;;;;;;5096446;28;20407;-74
2021/08/21 08:38:55;;;;;;;15.90;14.00;;;22.50;99.90;;;;;;5095576;28;20031;-78
2021/08/21 08:41:22;;;;;;;17.13;13.52;;;22.60;99.90;;;;;;5096087;28;20028;-77
2021/08/21 08:43:48;;;;;;;14.93;13.35;;;22.60;99.90;;;;;;5096167;28;20107;-77
2021/08/21 08:46:17;;;;;;;14.75;13.27;;;22.60;99.90;;;;;;5095993;28;20082;-78
2021/08/21 08:48:42;;;;;;;17.58;14.02;;;22.70;99.90;;;;;;5095998;28;20023;-74
2021/08/21 08:51:10;;;;;;;14.23;12.77;;;22.70;99.90;;;;;;5096236;28;20028;-77
2021/08/21 08:53:35;;;;;;;16.83;13.98;;;22.60;99.90;;;;;;5094671;28;20020;-80
2021/08/21 08:56:01;;;;;;;16.33;14.45;;;22.50;99.90;;;;;;5095835;28;20161;-79
2021/08/21 08:58:27;;;;;;;14.85;13.05;;;22.40;99.90;;;;;;5096778;28;20035;-73
2021/08/21 09:00:52;;;;;;;14.95;13.55;;;22.50;99.90;;;;;;5093586;28;20036;-76
2021/08/21 09:03:21;;;;;;;17.15;13.32;;;22.60;99.90;;;;;;5107985;28;20027;-75
2021/08/21 09:05:47;;;;;;;14.65;13.02;;;22.70;99.90;;;;;;5116194;28;20480;-73
2021/08/21 09:08:26;;;;;;;14.27;12.80;;;22.80;99.90;;;;;;5111190;28;20032;-79
2021/08/21 09:10:52;;;;;;;13.98;12.60;;;22.80;99.90;;;;;;5094413;28;20038;-78
2021/08/21 09:13:18;;;;;;;14.38;12.88;;;22.90;99.90;;;;;;5093128;28;20036;-77
2021/08/21 09:15:48;;;;;;;14.32;12.55;;;22.80;99.90;;;;;;5093220;28;20024;-74
2021/08/21 09:18:22;;;;;;;13.85;12.45;;;22.80;99.90;;;;;;5092335;28;20035;-75
2021/08/21 09:20:48;;;;;;;13.98;12.52;;;22.80;99.90;;;;;;5091378;28;20476;-74
2021/08/21 09:23:24;;;;;;;14.57;12.93;;;22.90;99.90;;;;;;5092969;28;20027;-73
2021/08/21 09:25:56;;;;;;;13.95;12.40;;;23.00;99.90;;;;;;5081875;28;20028;-77
2021/08/21 09:28:24;;;;;;;14.80;12.20;;;23.00;99.90;;;;;;5093380;28;20118;-79
2021/08/21 09:31:08;;;;;;;13.73;12.30;;;23.10;99.90;;;;;;5093921;28;20019;-74
2021/08/21 09:33:36;;;;;;;13.50;11.35;;;23.20;99.90;;;;;;5094471;28;20024;-74
2021/08/21 09:36:02;;;;;;;11.65;10.02;;;23.20;99.90;;;;;;5093251;28;20088;-74
2021/08/21 09:38:33;;;;;;;13.00;11.55;;;23.20;99.90;;;;;;5098320;28;20032;-75
2021/08/21 09:41:09;;;;;;;14.10;12.35;;;23.20;99.90;;;;;;5091961;28;20039;-75
2021/08/21 09:43:37;;;;;;;14.23;11.30;;;23.10;99.90;;;;;;5093999;28;20123;-75
2021/08/21 09:46:10;;;;;;;12.07;10.95;;;22.90;99.90;;;;;;5093372;28;20111;-79
2021/08/21 09:49:00;;;;;;;13.60;11.63;;;22.70;99.90;;;;;;5072155;28;20111;-73
2021/08/21 09:51:44;;;;;;;13.07;10.43;;;22.60;99.90;;;;;;5083254;28;20350;-75
2021/08/21 09:54:14;;;;;;;13.02;11.43;;;22.40;99.90;;;;;;5094243;28;20028;-74
2021/08/21 09:56:42;;;;;;;14.50;11.83;;;22.30;99.90;;;;;;5093808;28;20098;-76
2021/08/21 09:59:08;;;;;;;11.73;10.48;;;22.30;99.90;;;;;;5094136;28;20024;-76
2021/08/21 10:01:34;;;;;;;11.73;10.23;;;22.30;99.90;;;;;;5091600;28;20480;-73
2021/08/21 10:04:00;;;;;;;11.55;9.00;;;22.40;99.90;;;;;;5109422;28;20115;-76
2021/08/21 10:06:26;;;;;;;9.88;8.27;;;22.50;99.90;;;;;;5095287;28;20074;-75
2021/08/21 10:08:57;;;;;;;9.73;7.70;;;22.70;99.90;;;;;;5092289;28;20023;-74
2021/08/21 10:11:23;;;;;;;6.22;5.43;;;22.90;99.90;;;;;;5091357;28;20020;-73
2021/08/21 10:13:49;;;;;;;6.72;6.03;;;23.00;99.90;;;;;;5057318;28;1057574;-73
2021/08/21 10:16:14;;;;;;;7.35;5.88;;;23.20;99.90;;;;;;5093745;28;20484;-79
2021/08/21 10:18:46;;;;;;;9.10;6.95;;;23.30;99.90;;;;;;5092801;28;20054;-75
2021/08/21 10:21:13;;;;;;;9.05;7.43;;;23.30;99.90;;;;;;5093729;28;20105;-72
2021/08/21 10:23:44;;;;;;;7.85;6.32;;;23.30;99.90;;;;;;5092608;28;20362;-71
2021/08/21 10:26:33;;;;;;;8.05;6.75;;;23.10;99.90;;;;;;5094700;28;20541;-73
2021/08/21 10:28:59;;;;;;;12.95;6.28;;;23.00;99.90;;;;;;5093957;28;20021;-73
2021/08/21 10:31:39;;;;;;;6.35;5.50;;;22.90;99.90;;;;;;5093612;28;20426;-75
2021/08/21 10:34:07;;;;;;;7.53;5.40;;;22.80;99.90;;;;;;5094107;28;20110;-74
2021/08/21 10:36:52;;;;;;;8.55;6.05;;;22.80;99.90;;;;;;5094209;28;20024;-76
2021/08/21 10:39:23;;;;;;;10.98;6.25;;;22.80;99.90;;;;;;5093168;28;20024;-74
2021/08/21 10:41:55;;;;;;;9.18;5.97;;;22.80;99.90;;;;;;5091783;28;20040;-81
2021/08/21 10:44:46;;;;;;;11.00;6.72;;;22.80;99.90;;;;;;5092286;28;20023;-71
2021/08/21 10:47:30;;;;;;;10.05;6.22;;;22.80;99.90;;;;;;5092437;28;20422;-72
2021/08/21 10:49:58;;;;;;;8.82;6.50;;;22.90;99.90;;;;;;5091889;28;20536;-71
2021/08/21 10:52:56;;;;;;;7.93;5.68;;;22.90;99.90;;;;;;5093267;28;20508;-72
2021/08/21 10:55:38;;;;;;;9.50;6.40;;;23.00;99.90;;;;;;5092079;28;20077;-71
2021/08/21 10:58:18;;;;;;;8.20;6.15;;;23.00;99.90;;;;;;5093460;28;20047;-71
2021/08/21 11:01:04;;;;;;;8.07;6.40;;;23.10;99.90;;;;;;5093199;28;20059;-75
2021/08/21 11:03:30;;;;;;;7.18;5.90;;;23.10;99.90;;;;;;5091453;28;20452;-73
2021/08/21 11:06:01;;;;;;;8.15;6.68;;;23.20;99.90;;;;;;5092087;28;20020;-73
2021/08/21 11:08:28;;;;;;;;;;;23.20;99.90;;;;;;5092372;28;20028;-72
2021/08/21 11:11:14;;;;;;;9.88;5.75;;;23.20;99.90;;;;;;5092888;28;19911;-71
2021/08/21 11:14:23;;;;;;;8.23;6.50;;;23.20;99.90;;;;;;5084950;28;20052;-75
2021/08/21 11:16:49;;;;;;;7.88;6.40;;;23.30;99.90;;;;;;5091806;28;20035;-77
2021/08/21 11:19:44;;;;;;;9.18;6.20;;;23.30;99.90;;;;;;5093032;28;20024;-75
2021/08/21 11:22:10;;;;;;;8.77;5.40;;;23.40;99.90;;;;;;5092533;28;20030;-77
2021/08/21 11:24:38;;;;;;;8.65;4.72;;;23.50;99.90;;;;;;5092131;28;20451;-77
2021/08/21 11:27:22;;;;;;;6.20;4.90;;;23.50;99.90;;;;;;5091018;28;20030;-77
2021/08/21 11:30:09;;;;;;;9.57;5.57;;;23.70;99.90;;;;;;5092998;28;20103;-78
2021/08/21 11:32:43;;;;;;;5.95;4.65;;;24.00;99.90;;;;;;5091925;28;20573;-76
2021/08/21 11:35:35;;;;;;;5.43;4.93;;;24.10;99.90;;;;;;5091914;28;20024;-73
2021/08/21 11:38:04;;;;;;;5.47;3.83;;;24.40;99.90;;;;;;5088988;28;20035;-73
2021/08/21 11:40:37;;;;;;;10.40;4.25;;;24.80;99.90;;;;;;5092530;28;20044;-75
2021/08/21 11:43:05;;;;;;;6.95;3.83;;;25.20;99.90;;;;;;5092699;28;20044;-73
2021/08/21 11:45:32;;;;;;;5.90;4.38;;;25.40;99.90;;;;;;5092021;28;20042;-75
2021/08/21 11:47:58;;;;;;;4.30;3.83;;;25.70;99.90;;;;;;5091957;28;20028;-73
2021/08/21 11:50:31;;;;;;;5.18;4.35;;;25.90;99.90;;;;;;5091080;28;20020;-74
2021/08/21 11:53:07;;;;;;;7.25;4.65;;;26.00;99.90;;;;;;5092719;28;20426;-73
2021/08/21 11:55:35;;;;;;;5.40;4.57;;;26.00;99.90;;;;;;5092433;28;20031;-74
2021/08/21 11:58:02;;;;;;;4.57;3.72;;;25.90;99.90;;;;;;5092757;28;20039;-73
2021/08/21 12:00:30;;;;;;;5.50;4.15;;;25.80;99.90;;;;;;5092941;28;20029;-74
2021/08/21 12:03:02;;;;;;;4.55;3.85;;;25.80;99.90;;;;;;5092174;28;20056;-72
2021/08/21 12:05:44;;;;;;;5.10;3.65;;;25.90;99.90;;;;;;5093191;28;20024;-73
2021/08/21 12:08:24;;;;;;;5.55;4.18;;;26.00;99.90;;;;;;5092499;28;20493;-73
2021/08/21 12:11:02;;;;;;;5.43;4.35;;;26.10;99.90;;;;;;5091450;28;20496;-71
2021/08/21 12:13:33;;;;;;;5.13;4.05;;;26.10;99.90;;;;;;5092137;28;20417;-72
2021/08/21 12:16:06;;;;;;;6.00;4.28;;;26.20;99.90;;;;;;5088049;28;20492;-72
2021/08/21 12:18:34;;;;;;;4.40;4.00;;;26.20;99.90;;;;;;5091403;28;20020;-69
2021/08/21 12:21:01;;;;;;;4.20;3.55;;;26.30;99.90;;;;;;5090675;28;20044;-72
2021/08/21 12:23:26;;;;;;;6.07;4.00;;;26.30;99.90;;;;;;5092120;28;20385;-72
2021/08/21 12:25:59;;;;;;;7.55;5.30;;;26.30;99.90;;;;;;5092430;28;20020;-72
2021/08/21 12:28:35;;;;;;;4.53;3.70;;;26.50;99.90;;;;;;5092831;28;20054;-72
2021/08/21 12:31:04;;;;;;;5.40;4.53;;;26.60;99.90;;;;;;5091635;28;20097;-73
2021/08/21 12:33:56;;;;;;;4.57;3.85;;;26.80;99.90;;;;;;5091600;28;20020;-75
2021/08/21 12:36:24;;;;;;;6.03;3.80;;;26.80;99.90;;;;;;5088205;28;20029;-73
2021/08/21 12:39:06;;;;;;;4.97;4.18;;;26.80;99.90;;;;;;5090271;28;20028;-74